Time;durP1;ratioP1;P1;durP2;ratioP2;P2;SDS_P1;SDS_P2;PMS_P1;PMS_P2;Temp;Humidity;BMP_temperature;BMP_pressure;BME280_temperature;BME280_humidity;BME280_pressure;Samples;Min_cycle;Max_cycle;Signal;HPM_P1;HPM_P2
2023/12/26 00:00:33;;;;;;;3.47;0.90;;;9.80;99.90;;;;;;5094879;28;20052;-61
2023/12/26 00:03:00;;;;;;;3.10;0.73;;;9.80;99.90;;;;;;5094834;28;20471;-61
2023/12/26 00:05:25;;;;;;;;;;;9.80;99.90;;;;;;5095115;28;20047;-61
2023/12/26 00:07:51;;;;;;;2.15;0.77;;;9.80;99.90;;;;;;5094547;28;19966;-61
2023/12/26 00:10:17;;;;;;;1.87;0.73;;;9.80;99.90;;;;;;5094499;28;20135;-61
2023/12/26 00:12:42;;;;;;;2.93;0.90;;;9.80;99.90;;;;;;5094519;28;20044;-60
2023/12/26 00:15:09;;;;;;;2.07;0.80;;;9.80;99.90;;;;;;5094556;28;20054;-61
2023/12/26 00:17:35;;;;;;;1.50;0.50;;;9.80;99.90;;;;;;5094216;28;20093;-60
2023/12/26 00:20:00;;;;;;;3.10;0.90;;;9.80;99.90;;;;;;5094286;28;20039;-60
2023/12/26 00:22:26;;;;;;;1.50;0.60;;;9.80;99.90;;;;;;5094250;28;20043;-60
2023/12/26 00:24:52;;;;;;;5.77;0.80;;;9.80;99.90;;;;;;5094251;28;20477;-61
2023/12/26 00:27:18;;;;;;;3.50;0.52;;;9.80;99.90;;;;;;5093936;28;20135;-61
2023/12/26 00:29:44;;;;;;;2.97;0.93;;;9.80;99.90;;;;;;5094262;28;20051;-62
2023/12/26 00:32:10;;;;;;;2.17;0.90;;;9.80;99.90;;;;;;5094260;28;20043;-61
2023/12/26 00:34:35;;;;;;;2.90;0.80;;;9.90;99.90;;;;;;5094010;28;20044;-61
2023/12/26 00:37:01;;;;;;;3.17;0.97;;;9.90;99.90;;;;;;5094122;28;20075;-61
2023/12/26 00:39:27;;;;;;;2.23;0.70;;;9.90;99.90;;;;;;5094122;28;20479;-59
2023/12/26 00:41:53;;;;;;;2.90;0.80;;;9.90;99.90;;;;;;5093944;28;20493;-61
2023/12/26 00:44:19;;;;;;;3.05;0.63;;;9.90;99.90;;;;;;5093982;28;20040;-61
2023/12/26 00:46:46;;;;;;;1.88;0.70;;;9.90;99.90;;;;;;5093164;28;20564;-61
2023/12/26 00:49:13;;;;;;;4.18;0.90;;;9.90;99.90;;;;;;5093773;28;20119;-61
2023/12/26 00:51:38;;;;;;;;;;;9.90;99.90;;;;;;5093224;28;20055;-60
2023/12/26 00:54:04;;;;;;;1.38;0.40;;;9.90;99.90;;;;;;5092618;28;19923;-60
2023/12/26 00:56:30;;;;;;;1.17;0.40;;;9.90;99.90;;;;;;5093864;28;20084;-61
2023/12/26 00:58:56;;;;;;;1.03;0.40;;;9.90;99.90;;;;;;5093829;28;20559;-61
2023/12/26 01:01:22;;;;;;;1.63;0.40;;;9.90;99.90;;;;;;5094157;28;20048;-61
2023/12/26 01:03:47;;;;;;;0.97;0.20;;;9.90;99.90;;;;;;5093725;28;20391;-61
2023/12/26 01:06:14;;;;;;;1.07;0.40;;;9.90;99.90;;;;;;5093798;28;20544;-61
2023/12/26 01:08:40;;;;;;;2.20;0.30;;;9.90;99.90;;;;;;5093648;28;20123;-60
2023/12/26 01:11:06;;;;;;;1.30;0.33;;;9.90;99.90;;;;;;5093970;28;20138;-60
2023/12/26 01:13:34;;;;;;;1.93;0.23;;;9.90;99.90;;;;;;5092755;28;20106;-60
2023/12/26 01:16:02;;;;;;;2.42;0.40;;;9.90;99.90;;;;;;5093730;28;20048;-61
2023/12/26 01:18:29;;;;;;;1.75;0.68;;;9.90;99.90;;;;;;5093693;28;20387;-60
2023/12/26 01:20:55;;;;;;;0.68;0.30;;;9.90;99.90;;;;;;5093522;28;20055;-61
2023/12/26 01:23:20;;;;;;;2.10;0.33;;;9.90;99.90;;;;;;5093453;28;20052;-60
2023/12/26 01:25:46;;;;;;;2.43;0.40;;;9.90;99.90;;;;;;5093435;28;20056;-60
2023/12/26 01:28:12;;;;;;;3.80;0.40;;;9.90;99.90;;;;;;5093616;28;20052;-60
2023/12/26 01:30:40;;;;;;;1.93;0.60;;;9.90;99.90;;;;;;5096075;28;20538;-60
2023/12/26 01:33:06;;;;;;;3.42;0.30;;;9.90;99.90;;;;;;5096368;28;20078;-60
2023/12/26 01:35:32;;;;;;;6.07;0.85;;;9.90;99.90;;;;;;5097387;28;20043;-60
2023/12/26 01:37:58;;;;;;;2.70;0.50;;;9.90;99.90;;;;;;5097233;28;20077;-60
2023/12/26 01:40:24;;;;;;;1.97;0.40;;;9.90;99.90;;;;;;5098128;28;20500;-60
2023/12/26 01:42:50;;;;;;;4.88;0.47;;;9.90;99.90;;;;;;5097361;28;20447;-60
2023/12/26 01:45:16;;;;;;;4.95;0.40;;;9.90;99.90;;;;;;5097388;28;20483;-60
2023/12/26 01:47:45;;;;;;;2.22;0.55;;;9.90;99.90;;;;;;5097154;28;20047;-59
2023/12/26 01:50:14;;;;;;;5.60;0.50;;;9.90;99.90;;;;;;5097193;28;20051;-60
2023/12/26 01:52:40;;;;;;;4.45;0.68;;;9.90;99.90;;;;;;5096057;28;20052;-59
2023/12/26 01:55:08;;;;;;;4.10;0.55;;;9.80;99.90;;;;;;5097189;28;20083;-59
2023/12/26 01:57:35;;;;;;;7.53;0.60;;;9.90;99.90;;;;;;5097152;28;20040;-59
2023/12/26 02:00:03;;;;;;;4.40;0.40;;;9.90;99.90;;;;;;5097175;28;20161;-59
2023/12/26 02:02:31;;;;;;;4.78;0.80;;;9.90;99.90;;;;;;5096015;28;20056;-59
2023/12/26 02:04:58;;;;;;;2.22;0.50;;;9.80;99.90;;;;;;5097034;28;20085;-60
2023/12/26 02:07:23;;;;;;;3.70;0.52;;;9.80;99.90;;;;;;5096721;28;20058;-59
2023/12/26 02:09:50;;;;;;;5.30;0.80;;;9.80;99.90;;;;;;5097170;28;20130;-59
2023/12/26 02:12:16;;;;;;;8.95;1.23;;;9.80;99.90;;;;;;5096933;28;20141;-59
2023/12/26 02:14:43;;;;;;;3.78;0.65;;;9.70;99.90;;;;;;5096870;28;20044;-59
2023/12/26 02:17:15;;;;;;;3.00;0.60;;;9.70;99.90;;;;;;5096758;28;20127;-59
2023/12/26 02:19:47;;;;;;;4.05;0.60;;;9.70;99.90;;;;;;5096638;28;20052;-59
2023/12/26 02:22:12;;;;;;;5.13;0.68;;;9.80;99.90;;;;;;5096634;28;20084;-59
2023/12/26 02:24:42;;;;;;;7.23;1.17;;;9.70;99.90;;;;;;5095404;28;20466;-60
2023/12/26 02:27:24;;;;;;;6.65;0.98;;;9.80;99.90;;;;;;5095205;28;20060;-60
2023/12/26 02:29:52;;;;;;;6.78;0.70;;;9.70;99.90;;;;;;5096642;28;20062;-59
2023/12/26 02:32:19;;;;;;;3.17;0.60;;;9.80;99.90;;;;;;5096308;28;20083;-60
2023/12/26 02:34:50;;;;;;;7.70;0.75;;;9.80;99.90;;;;;;5096536;28;20044;-59
2023/12/26 02:37:16;;;;;;;4.57;1.10;;;9.70;99.90;;;;;;5096368;28;20082;-60
2023/12/26 02:39:43;;;;;;;11.02;1.20;;;9.80;99.90;;;;;;5096304;28;20071;-60
2023/12/26 02:42:11;;;;;;;5.22;1.00;;;9.80;99.90;;;;;;5095664;28;20396;-60
2023/12/26 02:44:38;;;;;;;5.75;1.15;;;9.80;99.90;;;;;;5096113;28;20044;-59
2023/12/26 02:47:04;;;;;;;8.35;0.77;;;9.80;99.90;;;;;;5096101;28;20048;-60
2023/12/26 02:49:30;;;;;;;9.18;1.00;;;9.70;99.90;;;;;;5096105;28;20153;-59
2023/12/26 02:51:55;;;;;;;5.77;1.07;;;9.70;99.90;;;;;;5096362;28;20070;-60
2023/12/26 02:54:21;;;;;;;6.63;1.23;;;9.70;99.90;;;;;;5096045;28;20084;-60
2023/12/26 02:56:47;;;;;;;5.63;0.70;;;9.70;99.90;;;;;;5095974;28;20054;-59
2023/12/26 02:59:12;;;;;;;3.47;0.70;;;9.60;99.90;;;;;;5095775;28;20054;-60
2023/12/26 03:01:38;;;;;;;8.27;0.90;;;9.70;99.90;;;;;;5095678;28;20075;-60
2023/12/26 03:04:04;;;;;;;6.47;0.80;;;9.60;99.90;;;;;;5094614;28;20051;-60
2023/12/26 03:06:29;;;;;;;5.83;1.17;;;9.60;99.90;;;;;;5095858;28;20074;-60
2023/12/26 03:08:55;;;;;;;5.80;1.13;;;9.60;99.90;;;;;;5095983;28;20513;-59
2023/12/26 03:11:21;;;;;;;8.63;1.37;;;9.50;99.90;;;;;;5094703;28;20051;-60
2023/12/26 03:13:46;;;;;;;10.20;0.83;;;9.50;99.90;;;;;;5095497;28;20051;-59
2023/12/26 03:16:12;;;;;;;4.80;0.60;;;9.50;99.90;;;;;;5095435;28;20080;-60
2023/12/26 03:18:38;;;;;;;5.33;0.70;;;9.40;99.90;;;;;;5095634;28;20487;-60
2023/12/26 03:21:03;;;;;;;5.23;0.90;;;9.40;99.90;;;;;;5095464;28;20070;-60
2023/12/26 03:23:29;;;;;;;7.60;0.87;;;9.40;99.90;;;;;;5095420;28;20483;-60
2023/12/26 03:25:55;;;;;;;5.87;0.70;;;9.30;99.90;;;;;;5095369;28;20101;-60
2023/12/26 03:28:20;;;;;;;6.80;0.80;;;9.30;99.90;;;;;;5094241;28;20055;-60
2023/12/26 03:30:46;;;;;;;7.83;1.03;;;9.20;99.90;;;;;;5095127;28;20521;-60
2023/12/26 03:33:12;;;;;;;4.73;0.57;;;9.20;99.90;;;;;;5095333;28;20040;-60
2023/12/26 03:35:37;;;;;;;6.07;2.53;;;9.20;99.90;;;;;;5095748;28;20471;-60
2023/12/26 03:38:03;;;;;;;5.20;0.70;;;9.20;99.90;;;;;;5094024;28;20048;-60
2023/12/26 03:40:29;;;;;;;3.70;0.60;;;9.20;99.90;;;;;;5095398;28;20059;-60
2023/12/26 03:42:55;;;;;;;4.17;0.80;;;9.10;99.90;;;;;;5095033;28;20294;-60
2023/12/26 03:45:21;;;;;;;6.50;0.88;;;9.10;99.90;;;;;;5077576;28;20105;-61
2023/12/26 03:47:47;;;;;;;5.73;0.90;;;9.10;99.90;;;;;;5095357;28;20048;-61
2023/12/26 03:50:13;;;;;;;5.47;1.00;;;9.00;99.90;;;;;;5094027;28;20044;-60
2023/12/26 03:52:40;;;;;;;6.80;1.13;;;9.00;99.90;;;;;;5093876;28;20052;-60
2023/12/26 03:55:06;;;;;;;6.63;0.68;;;9.00;99.90;;;;;;5094988;28;20048;-60
2023/12/26 03:57:31;;;;;;;8.43;0.90;;;9.00;99.90;;;;;;5128029;27;20105;-59
2023/12/26 03:59:58;;;;;;;4.77;1.03;;;8.90;99.90;;;;;;5093547;28;20502;-61
2023/12/26 04:02:23;;;;;;;6.43;0.90;;;8.90;99.90;;;;;;5094823;28;20082;-60
2023/12/26 04:04:49;;;;;;;10.57;1.37;;;8.90;99.90;;;;;;5094629;28;20075;-60
2023/12/26 04:07:15;;;;;;;4.80;0.70;;;8.90;99.90;;;;;;5094447;28;20051;-60
2023/12/26 04:09:41;;;;;;;12.00;1.60;;;8.80;99.90;;;;;;5094746;28;20086;-60
2023/12/26 04:12:07;;;;;;;5.63;0.80;;;8.80;99.90;;;;;;5094380;28;20093;-60
2023/12/26 04:14:32;;;;;;;9.55;1.42;;;8.80;99.90;;;;;;5094433;28;20444;-60
2023/12/26 04:16:58;;;;;;;7.87;1.60;;;8.70;99.90;;;;;;5094558;28;20135;-59
2023/12/26 04:19:25;;;;;;;8.32;2.00;;;8.70;99.90;;;;;;5076641;28;20150;-60
2023/12/26 04:21:50;;;;;;;;;;;8.60;99.90;;;;;;5095062;28;20048;-60
2023/12/26 04:24:16;;;;;;;7.63;1.38;;;8.60;99.90;;;;;;5094262;28;20022;-60
2023/12/26 04:26:42;;;;;;;7.37;1.90;;;8.60;99.90;;;;;;5094465;28;20079;-60
2023/12/26 04:29:07;;;;;;;9.30;1.50;;;8.50;99.90;;;;;;5094008;28;20130;-60
2023/12/26 04:31:33;;;;;;;8.03;1.20;;;8.50;99.90;;;;;;5094455;28;20131;-60
2023/12/26 04:33:59;;;;;;;9.83;1.77;;;8.50;99.90;;;;;;5094545;28;20040;-60
2023/12/26 04:36:24;;;;;;;11.77;0.97;;;8.50;99.90;;;;;;5094381;28;20040;-60
2023/12/26 04:38:50;;;;;;;6.67;1.67;;;8.40;99.90;;;;;;5093137;28;20109;-60
2023/12/26 04:41:16;;;;;;;6.73;0.93;;;8.40;99.90;;;;;;5092888;28;20048;-59
2023/12/26 04:43:41;;;;;;;15.43;1.43;;;8.40;99.90;;;;;;5093815;28;20032;-60
2023/12/26 04:46:07;;;;;;;7.97;1.43;;;8.40;99.90;;;;;;5094087;28;20480;-60
2023/12/26 04:48:34;;;;;;;7.67;1.40;;;8.40;99.90;;;;;;5093948;28;20036;-60
2023/12/26 04:51:00;;;;;;;9.00;1.00;;;8.40;99.90;;;;;;5093985;28;20158;-59
2023/12/26 04:53:26;;;;;;;8.57;1.33;;;8.50;99.90;;;;;;5092770;28;20138;-59
2023/12/26 04:55:51;;;;;;;9.07;1.00;;;8.50;99.90;;;;;;5093881;28;20057;-60
2023/12/26 04:58:17;;;;;;;7.73;1.20;;;8.50;99.90;;;;;;5093641;28;20131;-59
2023/12/26 05:00:43;;;;;;;6.07;1.00;;;8.50;99.90;;;;;;5093878;28;20479;-60
2023/12/26 05:03:09;;;;;;;8.95;1.98;;;8.50;99.90;;;;;;5093482;28;20036;-59
2023/12/26 05:05:35;;;;;;;9.57;1.27;;;8.50;99.90;;;;;;5093213;28;20130;-60
2023/12/26 05:08:00;;;;;;;9.37;1.47;;;8.50;99.90;;;;;;5093061;28;20087;-60
2023/12/26 05:10:26;;;;;;;4.97;0.87;;;8.50;99.90;;;;;;5093704;28;20100;-60
2023/12/26 05:12:52;;;;;;;7.45;1.20;;;8.50;99.90;;;;;;5093689;28;20048;-59
2023/12/26 05:15:18;;;;;;;7.80;1.67;;;8.50;99.90;;;;;;5093736;28;20063;-60
2023/12/26 05:17:44;;;;;;;5.37;1.07;;;8.60;99.90;;;;;;5093825;28;20278;-60
2023/12/26 05:20:10;;;;;;;9.93;1.20;;;8.60;99.90;;;;;;5093708;28;20052;-60
2023/12/26 05:22:36;;;;;;;8.88;1.25;;;8.60;99.90;;;;;;5093532;28;20127;-60
2023/12/26 05:25:02;;;;;;;6.30;0.87;;;8.60;99.90;;;;;;5093424;28;20559;-59
2023/12/26 05:27:27;;;;;;;9.63;1.10;;;8.60;99.90;;;;;;5093401;28;20501;-60
2023/12/26 05:29:53;;;;;;;10.47;1.00;;;8.60;99.90;;;;;;5093536;28;20050;-59
2023/12/26 05:32:19;;;;;;;6.67;1.10;;;8.60;99.90;;;;;;5093553;28;20048;-59
2023/12/26 05:34:45;;;;;;;4.40;1.03;;;8.60;99.90;;;;;;5093924;28;20047;-59
2023/12/26 05:37:10;;;;;;;6.40;1.23;;;8.60;99.90;;;;;;5093539;28;20043;-60
2023/12/26 05:39:36;;;;;;;6.50;1.17;;;8.60;99.90;;;;;;5093454;28;20040;-59
2023/12/26 05:42:03;;;;;;;5.57;0.83;;;8.60;99.90;;;;;;5093404;28;20151;-59
2023/12/26 05:44:28;;;;;;;8.00;0.95;;;8.60;99.90;;;;;;5093419;28;20040;-59
2023/12/26 05:46:54;;;;;;;6.40;1.00;;;8.60;99.90;;;;;;5093377;28;20048;-59
2023/12/26 05:49:20;;;;;;;6.40;1.07;;;8.60;99.90;;;;;;5093547;28;20123;-59
2023/12/26 05:51:45;;;;;;;7.67;1.23;;;8.70;99.90;;;;;;5093508;28;20052;-59
2023/12/26 05:54:11;;;;;;;6.10;0.70;;;8.70;99.90;;;;;;5093179;28;20047;-59
2023/12/26 05:56:37;;;;;;;8.53;1.17;;;8.70;99.90;;;;;;5093313;28;20040;-59
2023/12/26 05:59:02;;;;;;;6.67;0.87;;;8.60;99.90;;;;;;5093390;28;20494;-59
2023/12/26 06:01:28;;;;;;;5.80;1.27;;;8.70;99.90;;;;;;5093266;28;20051;-59
2023/12/26 06:03:54;;;;;;;6.97;1.17;;;8.60;99.90;;;;;;5093224;28;20040;-59
2023/12/26 06:06:21;;;;;;;9.60;0.93;;;8.70;99.90;;;;;;5093546;28;20048;-59
2023/12/26 06:08:46;;;;;;;;;;;8.70;99.90;;;;;;5093593;28;20101;-59
2023/12/26 06:11:12;;;;;;;6.53;0.88;;;8.70;99.90;;;;;;5092965;28;19920;-59
2023/12/26 06:13:38;;;;;;;7.60;1.23;;;8.70;99.90;;;;;;5093181;28;20483;-59
2023/12/26 06:16:03;;;;;;;7.70;0.80;;;8.70;99.90;;;;;;5094617;28;20058;-59
2023/12/26 06:18:29;;;;;;;4.67;0.93;;;8.70;99.90;;;;;;5095851;28;20134;-59
2023/12/26 06:20:55;;;;;;;7.47;1.27;;;8.70;99.90;;;;;;5096788;28;20126;-60
2023/12/26 06:23:20;;;;;;;5.77;1.30;;;8.70;99.90;;;;;;5096752;28;20036;-60
2023/12/26 06:25:46;;;;;;;6.63;0.97;;;8.70;99.90;;;;;;5096598;28;20072;-60
2023/12/26 06:28:12;;;;;;;6.03;0.73;;;8.70;99.90;;;;;;5096298;28;20052;-60
2023/12/26 06:30:38;;;;;;;4.70;0.60;;;8.70;99.90;;;;;;5096384;28;20449;-59
2023/12/26 06:33:03;;;;;;;4.27;0.80;;;8.70;99.90;;;;;;5096511;28;20046;-59
2023/12/26 06:35:29;;;;;;;5.73;0.83;;;8.70;99.90;;;;;;5096525;28;20112;-59
2023/12/26 06:37:55;;;;;;;7.40;1.07;;;8.70;99.90;;;;;;5096261;28;20088;-59
2023/12/26 06:40:20;;;;;;;5.10;0.87;;;8.60;99.90;;;;;;5096194;28;20043;-59
2023/12/26 06:42:46;;;;;;;7.83;0.73;;;8.60;99.90;;;;;;5096042;28;20044;-59
2023/12/26 06:45:12;;;;;;;5.40;0.87;;;8.60;99.90;;;;;;5096082;28;20043;-58
2023/12/26 06:47:40;;;;;;;9.90;1.20;;;8.60;99.90;;;;;;5096208;28;20083;-59
2023/12/26 06:50:06;;;;;;;7.15;1.00;;;8.50;99.90;;;;;;5096527;28;20040;-59
2023/12/26 06:52:31;;;;;;;6.30;1.00;;;8.50;99.90;;;;;;5095969;28;20048;-59
2023/12/26 06:54:58;;;;;;;5.40;0.90;;;8.50;99.90;;;;;;5095919;28;20278;-58
2023/12/26 06:57:23;;;;;;;9.35;1.52;;;8.50;99.90;;;;;;5096103;28;20052;-60
2023/12/26 06:59:52;;;;;;;5.57;0.90;;;8.40;99.90;;;;;;5095978;28;20101;-59
2023/12/26 07:02:18;;;;;;;9.20;0.98;;;8.40;99.90;;;;;;5095876;28;20101;-59
2023/12/26 07:04:44;;;;;;;8.03;1.10;;;8.40;99.90;;;;;;5094581;28;20048;-59
2023/12/26 07:07:10;;;;;;;7.97;0.80;;;8.40;99.90;;;;;;5094879;28;20047;-58
2023/12/26 07:09:36;;;;;;;11.38;1.15;;;8.50;99.90;;;;;;5095581;28;20478;-59
2023/12/26 07:12:02;;;;;;;7.00;0.90;;;8.50;99.90;;;;;;5095483;28;20048;-60
2023/12/26 07:14:28;;;;;;;7.07;1.17;;;8.40;99.90;;;;;;5095752;28;20092;-60
2023/12/26 07:16:54;;;;;;;6.38;0.95;;;8.40;99.90;;;;;;5095701;28;20048;-60
2023/12/26 07:19:20;;;;;;;7.10;0.90;;;8.40;99.90;;;;;;5095692;28;20399;-60
2023/12/26 07:21:46;;;;;;;6.67;1.23;;;8.40;99.90;;;;;;5095420;28;20506;-59
2023/12/26 07:24:12;;;;;;;5.60;1.23;;;8.40;99.90;;;;;;5095354;28;20040;-59
2023/12/26 07:26:38;;;;;;;6.68;1.00;;;8.40;99.90;;;;;;5095100;28;20581;-60
2023/12/26 07:29:04;;;;;;;8.43;1.30;;;8.30;99.90;;;;;;5095638;28;20158;-59
2023/12/26 07:31:29;;;;;;;6.73;0.93;;;8.30;99.90;;;;;;5095373;28;20406;-59
2023/12/26 07:33:56;;;;;;;9.57;1.00;;;8.30;99.90;;;;;;5095557;28;20517;-59
2023/12/26 07:36:21;;;;;;;8.02;0.90;;;8.30;99.90;;;;;;5094305;28;20055;-60
2023/12/26 07:38:47;;;;;;;11.30;1.10;;;8.30;99.90;;;;;;5095153;28;20040;-59
2023/12/26 07:41:13;;;;;;;10.93;1.10;;;8.30;99.90;;;;;;5095033;28;20052;-59
2023/12/26 07:43:38;;;;;;;7.17;1.47;;;8.30;99.90;;;;;;5094907;28;20109;-59
2023/12/26 07:46:05;;;;;;;9.70;1.20;;;8.30;99.90;;;;;;5095231;28;20047;-60
2023/12/26 07:48:31;;;;;;;6.20;0.90;;;8.30;99.90;;;;;;5095030;28;20052;-60
2023/12/26 07:50:56;;;;;;;6.30;0.85;;;8.30;99.90;;;;;;5094822;28;20051;-60
2023/12/26 07:53:22;;;;;;;5.07;0.90;;;8.40;99.90;;;;;;5094951;28;20040;-59
2023/12/26 07:55:49;;;;;;;7.03;1.13;;;8.40;99.90;;;;;;5094942;28;20461;-59
2023/12/26 07:58:14;;;;;;;6.43;0.85;;;8.40;99.90;;;;;;5094892;28;20044;-60
2023/12/26 08:00:40;;;;;;;9.57;0.80;;;8.40;99.90;;;;;;5094856;28;20050;-60
2023/12/26 08:03:06;;;;;;;8.27;1.67;;;8.40;99.90;;;;;;5094725;28;20090;-60
2023/12/26 08:05:31;;;;;;;8.50;1.47;;;8.40;99.90;;;;;;5094801;28;20085;-60
2023/12/26 08:07:57;;;;;;;9.83;1.70;;;8.40;99.90;;;;;;5094428;28;20050;-59
2023/12/26 08:10:25;;;;;;;4.67;0.70;;;8.50;99.90;;;;;;5094404;28;20058;-59
2023/12/26 08:12:51;;;;;;;6.40;1.02;;;8.40;99.90;;;;;;5093609;28;20056;-60
2023/12/26 08:15:17;;;;;;;6.07;0.80;;;8.40;99.90;;;;;;5094632;28;20044;-60
2023/12/26 08:17:43;;;;;;;5.37;1.00;;;8.40;99.90;;;;;;5094396;28;20402;-59
2023/12/26 08:20:10;;;;;;;9.27;2.13;;;8.40;99.90;;;;;;5094383;28;20044;-59
2023/12/26 08:22:35;;;;;;;10.90;1.50;;;8.40;99.90;;;;;;5094333;28;20044;-59
2023/12/26 08:25:01;;;;;;;6.13;0.80;;;8.40;99.90;;;;;;5093844;28;20066;-60
2023/12/26 08:27:27;;;;;;;6.27;1.07;;;8.40;99.90;;;;;;5094554;28;20055;-59
2023/12/26 08:29:53;;;;;;;5.87;1.20;;;8.40;99.90;;;;;;5094298;28;20286;-59
2023/12/26 08:32:19;;;;;;;8.47;1.93;;;8.40;99.90;;;;;;5094277;28;20044;-59
2023/12/26 08:34:44;;;;;;;6.07;1.00;;;8.40;99.90;;;;;;5093476;28;20044;-59
2023/12/26 08:37:12;;;;;;;7.80;1.10;;;8.40;99.90;;;;;;5094142;28;20127;-59
2023/12/26 08:39:38;;;;;;;4.55;0.68;;;8.40;99.90;;;;;;5093435;28;20052;-59
2023/12/26 08:42:04;;;;;;;12.07;0.90;;;8.40;99.90;;;;;;5094136;28;20097;-59
2023/12/26 08:44:30;;;;;;;8.02;1.08;;;8.40;99.90;;;;;;5094009;28;20044;-59
2023/12/26 08:46:56;;;;;;;9.57;1.08;;;8.40;99.90;;;;;;5093061;28;20059;-60
2023/12/26 08:49:22;;;;;;;6.70;0.97;;;8.40;99.90;;;;;;5094143;28;20048;-59
2023/12/26 08:51:47;;;;;;;8.77;1.80;;;8.40;99.90;;;;;;5093892;28;20079;-59
2023/12/26 08:54:14;;;;;;;10.40;1.67;;;8.40;99.90;;;;;;5093818;28;20044;-59
2023/12/26 08:56:41;;;;;;;11.20;1.77;;;8.40;99.90;;;;;;5093889;28;20048;-59
2023/12/26 08:59:07;;;;;;;6.70;0.85;;;8.40;99.90;;;;;;5093874;28;20090;-59
2023/12/26 09:01:35;;;;;;;6.95;1.20;;;8.50;99.90;;;;;;5094005;28;20052;-59
2023/12/26 09:04:02;;;;;;;8.35;1.55;;;8.50;99.90;;;;;;5093629;28;20130;-60
2023/12/26 09:06:27;;;;;;;10.55;1.35;;;8.50;99.90;;;;;;5093710;28;20130;-59
2023/12/26 09:08:53;;;;;;;6.90;0.70;;;8.50;99.90;;;;;;5093934;28;20082;-60
2023/12/26 09:11:19;;;;;;;6.33;1.00;;;8.60;99.90;;;;;;5093533;28;20052;-60
2023/12/26 09:13:45;;;;;;;10.40;1.27;;;8.60;99.90;;;;;;5092783;28;20130;-60
2023/12/26 09:16:11;;;;;;;9.60;1.57;;;8.60;99.90;;;;;;5093666;28;20135;-59
2023/12/26 09:18:37;;;;;;;5.17;0.97;;;8.50;99.90;;;;;;5093651;28;20044;-60
2023/12/26 09:21:03;;;;;;;7.27;1.20;;;8.60;99.90;;;;;;5093447;28;20278;-59
2023/12/26 09:23:29;;;;;;;11.50;2.38;;;8.60;99.90;;;;;;5093632;28;20036;-59
2023/12/26 09:25:55;;;;;;;7.55;2.22;;;8.60;99.90;;;;;;5093878;28;20052;-59
2023/12/26 09:28:20;;;;;;;5.17;1.33;;;8.60;99.90;;;;;;5093505;28;20096;-60
2023/12/26 09:30:46;;;;;;;8.93;2.33;;;8.60;99.90;;;;;;5093477;28;20052;-59
2023/12/26 09:33:12;;;;;;;8.83;1.10;;;8.60;99.90;;;;;;5093614;28;20044;-60
2023/12/26 09:35:38;;;;;;;8.30;1.63;;;8.60;99.90;;;;;;5093323;28;20044;-58
2023/12/26 09:38:03;;;;;;;9.63;1.50;;;8.70;99.90;;;;;;5093220;28;20090;-59
2023/12/26 09:40:29;;;;;;;7.43;1.00;;;8.70;99.90;;;;;;5093770;28;20044;-59
2023/12/26 09:43:02;;;;;;;9.53;1.80;;;8.70;99.90;;;;;;5093772;28;20085;-60
2023/12/26 09:45:28;;;;;;;8.02;1.80;;;8.70;99.90;;;;;;5093423;28;20044;-59
2023/12/26 09:47:54;;;;;;;11.97;1.73;;;8.70;99.90;;;;;;5093546;28;20063;-59
2023/12/26 09:50:20;;;;;;;7.63;1.10;;;8.70;99.90;;;;;;5093638;28;20056;-59
2023/12/26 09:52:59;;;;;;;4.28;1.10;;;8.70;99.90;;;;;;5097296;28;20372;-59
2023/12/26 09:55:29;;;;;;;6.40;1.27;;;8.70;99.90;;;;;;5097732;28;20066;-60
2023/12/26 09:57:58;;;;;;;6.00;0.70;;;8.70;99.90;;;;;;5097072;28;20089;-60
2023/12/26 10:00:29;;;;;;;7.00;0.88;;;8.70;99.90;;;;;;5097042;28;20089;-60
2023/12/26 10:02:55;;;;;;;7.72;1.40;;;8.70;99.90;;;;;;5096841;28;20081;-60
2023/12/26 10:05:21;;;;;;;7.10;2.25;;;8.70;99.90;;;;;;5097104;28;20154;-59
2023/12/26 10:07:47;;;;;;;4.40;1.02;;;8.80;99.90;;;;;;5097044;28;20040;-59
2023/12/26 10:10:19;;;;;;;4.50;1.03;;;8.70;99.90;;;;;;5096988;28;20051;-60
2023/12/26 10:12:49;;;;;;;6.40;1.30;;;8.70;99.90;;;;;;5097143;28;20055;-60
2023/12/26 10:15:15;;;;;;;7.80;0.98;;;8.80;99.90;;;;;;5096685;28;20055;-59
2023/12/26 10:17:44;;;;;;;7.28;1.15;;;8.80;99.90;;;;;;5096874;28;20063;-59
2023/12/26 10:20:17;;;;;;;9.90;1.52;;;8.80;99.90;;;;;;5095937;28;20055;-60
2023/12/26 10:22:43;;;;;;;6.50;1.10;;;8.80;99.90;;;;;;5096625;28;20051;-60
2023/12/26 10:25:10;;;;;;;6.90;0.98;;;8.80;99.90;;;;;;5096414;28;20055;-59
2023/12/26 10:27:36;;;;;;;8.57;1.05;;;8.80;99.90;;;;;;5096540;28;20047;-59
2023/12/26 10:30:03;;;;;;;7.70;1.13;;;8.90;99.90;;;;;;5096383;28;20044;-60
2023/12/26 10:32:28;;;;;;;6.70;1.30;;;8.90;99.90;;;;;;5096582;28;20048;-59
2023/12/26 10:34:55;;;;;;;8.47;1.57;;;8.90;99.90;;;;;;5096837;28;20043;-59
2023/12/26 10:37:21;;;;;;;8.60;1.23;;;8.90;99.90;;;;;;5096384;28;20047;-59
2023/12/26 10:39:47;;;;;;;;;;;8.90;99.90;;;;;;5096690;28;20056;-59
2023/12/26 10:42:18;;;;;;;8.55;1.20;;;8.90;99.90;;;;;;5096337;28;20023;-59
2023/12/26 10:45:00;;;;;;;10.35;1.35;;;8.90;99.90;;;;;;5096030;28;20087;-60
2023/12/26 10:47:30;;;;;;;7.15;1.83;;;8.90;99.90;;;;;;5096314;28;20050;-60
2023/12/26 10:50:00;;;;;;;8.30;1.80;;;8.90;99.90;;;;;;5096108;28;20051;-59
2023/12/26 10:52:27;;;;;;;7.30;1.33;;;8.90;99.90;;;;;;5096189;28;20093;-59
2023/12/26 10:54:59;;;;;;;8.75;1.25;;;9.00;99.90;;;;;;5095853;28;20085;-60
2023/12/26 10:57:25;;;;;;;6.72;1.05;;;9.00;99.90;;;;;;5096124;28;20052;-59
2023/12/26 13:51:25;;;;;;;2.25;0.10;;;8.10;99.90;;;;;;5097398;28;20055;-58
2023/12/26 13:53:51;;;;;;;3.38;0.40;;;8.10;99.90;;;;;;5097247;28;20036;-58
2023/12/26 13:56:18;;;;;;;1.42;0.20;;;8.00;99.90;;;;;;5097155;28;20113;-58
2023/12/26 13:58:44;;;;;;;2.45;0.28;;;7.90;99.90;;;;;;5097015;28;20051;-58
2023/12/26 14:01:10;;;;;;;3.08;1.13;;;7.90;99.90;;;;;;5097183;28;20051;-57
2023/12/26 14:03:36;;;;;;;2.43;0.97;;;7.80;99.90;;;;;;5097190;28;20048;-56
2023/12/26 14:06:01;;;;;;;4.10;0.83;;;7.80;99.90;;;;;;5097112;28;20044;-57
2023/12/26 14:08:27;;;;;;;2.73;0.30;;;7.70;99.90;;;;;;5097339;28;20055;-57
2023/12/26 14:10:53;;;;;;;3.23;0.40;;;7.70;99.90;;;;;;5095925;28;20123;-57
2023/12/26 14:13:18;;;;;;;1.53;0.30;;;7.70;99.90;;;;;;5096848;28;20078;-56
2023/12/26 14:15:44;;;;;;;3.97;0.70;;;7.70;99.90;;;;;;5097183;28;20131;-57
2023/12/26 14:18:10;;;;;;;2.70;0.47;;;7.70;99.90;;;;;;5096801;28;20039;-57
2023/12/26 14:20:36;;;;;;;2.37;0.50;;;7.70;99.90;;;;;;5097183;28;20054;-56
2023/12/26 14:23:01;;;;;;;3.73;0.50;;;7.80;99.90;;;;;;5095427;28;20052;-57
2023/12/26 14:25:28;;;;;;;3.20;0.67;;;7.80;99.90;;;;;;5096559;28;20056;-56
2023/12/26 14:27:53;;;;;;;4.25;0.38;;;7.80;99.90;;;;;;5096523;28;20052;-56
2023/12/26 14:30:19;;;;;;;3.93;0.53;;;7.90;99.90;;;;;;5096648;28;20055;-56
2023/12/26 14:32:45;;;;;;;1.33;0.20;;;7.90;99.90;;;;;;5096546;28;20399;-57
2023/12/26 14:35:11;;;;;;;1.23;0.30;;;7.90;99.90;;;;;;5096678;28;20047;-57
2023/12/26 14:37:36;;;;;;;5.13;0.50;;;7.90;99.90;;;;;;5095583;28;20048;-57
2023/12/26 14:40:02;;;;;;;4.43;0.50;;;7.90;99.90;;;;;;5096350;28;20040;-56
2023/12/26 14:42:28;;;;;;;1.85;0.47;;;7.80;99.90;;;;;;5096267;28;20051;-56
2023/12/26 14:44:53;;;;;;;1.93;0.50;;;7.70;99.90;;;;;;5078218;28;20036;-56
2023/12/26 14:47:19;;;;;;;3.20;0.67;;;7.70;99.90;;;;;;5096222;28;20101;-56
2023/12/26 14:49:45;;;;;;;3.67;0.47;;;7.70;99.90;;;;;;5095272;28;20052;-56
2023/12/26 14:52:11;;;;;;;3.45;0.70;;;7.60;99.90;;;;;;5096064;28;20048;-56
2023/12/26 14:54:37;;;;;;;1.30;0.47;;;7.60;99.90;;;;;;5096113;28;20040;-57
2023/12/26 14:57:03;;;;;;;8.37;1.63;;;7.50;99.90;;;;;;5094874;28;20297;-56
2023/12/26 14:59:28;;;;;;;1.47;0.47;;;7.50;99.90;;;;;;5096048;28;20447;-56
2023/12/26 15:01:58;;;;;;;2.93;0.43;;;7.50;99.90;;;;;;5096120;28;20040;-54
2023/12/26 15:04:24;;;;;;;2.17;0.57;;;7.40;99.90;;;;;;5095791;28;20498;-56
2023/12/26 15:06:50;;;;;;;6.82;0.82;;;7.40;99.90;;;;;;5094760;28;20052;-56
2023/12/26 15:09:16;;;;;;;1.93;0.23;;;7.40;99.90;;;;;;5095739;28;20055;-56
2023/12/26 15:11:42;;;;;;;3.80;0.30;;;7.40;99.90;;;;;;5095616;28;20051;-56
2023/12/26 15:14:12;;;;;;;3.43;0.50;;;7.40;99.90;;;;;;5095785;28;20044;-56
2023/12/26 15:16:38;;;;;;;5.45;0.40;;;7.30;99.90;;;;;;5095642;28;20052;-57
2023/12/26 15:19:03;;;;;;;2.60;0.27;;;7.30;99.90;;;;;;5094680;28;20485;-57
2023/12/26 15:21:29;;;;;;;3.10;0.60;;;7.20;99.90;;;;;;5095433;28;20503;-57
2023/12/26 15:23:55;;;;;;;4.73;0.70;;;7.20;99.90;;;;;;5094330;28;20136;-56
2023/12/26 15:26:23;;;;;;;5.70;0.67;;;7.20;99.90;;;;;;5095347;28;20138;-56
2023/12/26 15:28:49;;;;;;;3.97;0.30;;;7.20;99.90;;;;;;5095494;28;20047;-56
2023/12/26 15:31:16;;;;;;;2.30;0.23;;;7.10;99.90;;;;;;5095523;28;20395;-56
2023/12/26 15:33:47;;;;;;;2.17;0.40;;;7.10;99.90;;;;;;5095217;28;20127;-56
2023/12/26 15:36:21;;;;;;;2.83;0.35;;;7.10;99.90;;;;;;5095307;28;20123;-56
2023/12/26 15:38:47;;;;;;;2.80;0.45;;;7.10;99.90;;;;;;5095064;28;20101;-55
2023/12/26 15:41:14;;;;;;;4.40;0.60;;;7.10;99.90;;;;;;5095317;28;20040;-55
2023/12/26 15:43:40;;;;;;;7.00;0.75;;;7.10;99.90;;;;;;5095145;28;20052;-56